Ursula — WDF2405 — position and weather

sailwx.info

Track history (hours):
 
Tides and Currents Weather Stations Pressure Air Temp Water Temp Dewpoint Dewpoint Depression Visibility Wind Speed Wind Dir Waves Ship Positions

Ursula

Owner: Enterprise Marine Services, LLC, San Antonio, TX. More information available from US FCC via Universal Licensing System and Coast Guard Vessel Documentation Center.

Last reported at 2018-May-20 10:59 UTC. Time now 2018-May-20 20:59 UTC.
Position N 29°44' W 095°03'.

Length 22 m; draft 3.2 m.

Type: Tug. MMSI: 367004050.

Date/timePositionNaut miles runAvg speedWind from/ knotsBaromVisibWave heightAir tempDewpointWater temp
2018-May-20 10:59N 29°44' W 095°03'3 0.1
2018-May-18 11:44N 29°47' W 095°05'1 1.0
2018-May-18 11:02N 29°47' W 095°05'0 0.0
2018-May-18 10:52N 29°47' W 095°05'0 0.0
2018-May-18 10:30N 29°47' W 095°05'0 0.0
2018-May-18 09:58N 29°47' W 095°05'0 0.0
2018-May-18 09:30N 29°47' W 095°05'0 0.0
2018-May-18 08:57N 29°47' W 095°05'0 0.0
2018-May-18 08:30N 29°47' W 095°05'0 0.0
2018-May-18 08:00N 29°47' W 095°05'0 0.0
2018-May-18 07:30N 29°47' W 095°05'0 0.0
2018-May-18 07:00N 29°47' W 095°05'0 0.0
2018-May-18 06:30N 29°47' W 095°05'0 0.0
2018-May-18 05:59N 29°47' W 095°05'0 0.0
2018-May-18 05:30N 29°47' W 095°05'0 0.0
2018-May-18 05:00N 29°47' W 095°05'0 0.0
2018-May-18 04:30N 29°47' W 095°05'0 0.0
2018-May-18 04:00N 29°47' W 095°05'0 0.0
2018-May-18 03:30N 29°47' W 095°05'0 0.0
2018-May-18 02:59N 29°47' W 095°05'0 0.0
2018-May-18 02:30N 29°47' W 095°05'0 0.0
2018-May-18 02:00N 29°47' W 095°05'0 0.0
2018-May-18 01:28N 29°47' W 095°05'0 0.0
2018-May-17 13:47N 29°47' W 095°05'0 0.1
2018-May-17 13:28N 29°47' W 095°05'0 0.3
2018-May-17 12:59N 29°47' W 095°05'0 0.9
2018-May-17 12:30N 29°47' W 095°04'1 2.6
2018-May-17 12:00N 29°46' W 095°05'0 0.4
2018-May-17 11:26N 29°46' W 095°04'2 2.4
2018-May-17 10:46N 29°47' W 095°05'0 0.9
2018-May-17 10:30N 29°47' W 095°05'0 0.0
2018-May-17 10:00N 29°47' W 095°05'0 0.0
2018-May-17 09:30N 29°47' W 095°05'0 0.0
2018-May-17 08:59N 29°47' W 095°05'0 0.0
2018-May-17 08:30N 29°47' W 095°05'0 0.0
2018-May-17 07:59N 29°47' W 095°05'0 0.0
2018-May-17 06:47N 29°47' W 095°05'0 0.0
2018-May-17 06:09N 29°47' W 095°05'0 0.0
2018-May-17 05:58N 29°47' W 095°05'0 0.0
2018-May-17 05:29N 29°47' W 095°05'0 0.0
2018-May-17 05:01N 29°47' W 095°05'0 0.0
2018-May-17 04:27N 29°47' W 095°05'0 0.1
2018-May-17 04:01N 29°47' W 095°05'0 0.1
2018-May-17 03:30N 29°47' W 095°05'0 0.0
2018-May-17 03:00N 29°47' W 095°05'0 0.0
2018-May-17 02:30N 29°47' W 095°05'0 0.0
2018-May-17 01:59N 29°47' W 095°05'0 0.0
2018-May-17 01:30N 29°47' W 095°05'4 1.9
2018-May-16 23:28N 29°44' W 095°03'4 0.4
2018-May-16 14:45N 29°47' W 095°05'0 0.1
2018-May-16 14:30N 29°47' W 095°05'0 0.1
2018-May-16 14:00N 29°47' W 095°05'0 0.0
2018-May-16 13:30N 29°47' W 095°05'0 0.0
2018-May-16 13:00N 29°47' W 095°05'0 0.2
2018-May-16 12:30N 29°47' W 095°05'0 0.0
2018-May-16 12:00N 29°47' W 095°05'0 0.0
2018-May-16 11:30N 29°47' W 095°05'0 0.0
2018-May-16 11:00N 29°47' W 095°05'0 0.0
2018-May-16 10:30N 29°47' W 095°05'0 0.0
2018-May-16 10:00N 29°47' W 095°05'0 0.0
2018-May-16 09:30N 29°47' W 095°05'0 0.0
2018-May-16 09:00N 29°47' W 095°05'0 0.0
2018-May-16 08:30N 29°47' W 095°05'0 0.0
2018-May-16 08:00N 29°47' W 095°05'0 0.0
2018-May-16 07:30N 29°47' W 095°05'0 0.0
2018-May-16 07:00N 29°47' W 095°05'0 0.0
2018-May-16 06:30N 29°47' W 095°05'0 0.0
2018-May-16 06:00N 29°47' W 095°05'0 0.0
2018-May-16 05:30N 29°47' W 095°05'0 0.0
2018-May-16 05:00N 29°47' W 095°05'0 0.0
2018-May-16 04:29N 29°47' W 095°05'0 0.0
2018-May-16 04:00N 29°47' W 095°05'0 0.0
2018-May-16 03:30N 29°47' W 095°05'0 0.0
2018-May-16 03:00N 29°47' W 095°05'0 0.0
2018-May-16 02:30N 29°47' W 095°05'0 0.0
2018-May-16 02:00N 29°47' W 095°05'0 0.0
2018-May-16 01:14N 29°47' W 095°05'0 0.0
2018-May-15 14:28N 29°47' W 095°05'0 0.0
2018-May-15 14:00N 29°47' W 095°05'0 0.0
2018-May-15 13:28N 29°47' W 095°05'0 0.2
2018-May-15 13:00N 29°47' W 095°05'0 0.0
2018-May-15 12:30N 29°47' W 095°05'0 0.0
2018-May-15 12:00N 29°47' W 095°05'0 0.0
2018-May-15 11:28N 29°47' W 095°05'0 0.0
2018-May-15 11:00N 29°47' W 095°05'0 0.3
2018-May-15 10:30N 29°47' W 095°05'0 0.0
2018-May-15 10:00N 29°47' W 095°05'0 1.0
2018-May-15 09:30N 29°47' W 095°04'0 0.4
2018-May-15 09:00N 29°47' W 095°05'0 0.8
2018-May-15 08:30N 29°47' W 095°05'0 0.0
2018-May-15 08:00N 29°47' W 095°05'0 0.1
2018-May-15 07:24N 29°47' W 095°05'0 0.4
2018-May-15 07:00N 29°47' W 095°05'0 0.0
2018-May-15 06:30N 29°47' W 095°05'0 0.0
2018-May-15 05:58N 29°47' W 095°05'0 0.0
2018-May-15 05:29N 29°47' W 095°05'0 0.0
2018-May-15 05:00N 29°47' W 095°05'0 0.0
2018-May-15 04:30N 29°47' W 095°05'0 0.0
2018-May-15 04:00N 29°47' W 095°05'0 0.0
2018-May-15 03:30N 29°47' W 095°05'0 0.0
2018-May-15 03:00N 29°47' W 095°05'0 0.0
2018-May-15 02:30N 29°47' W 095°05'0 0.0
2018-May-15 02:00N 29°47' W 095°05'0 0.0
2018-May-15 01:30N 29°47' W 095°05'0 0.1
2018-May-15 01:00N 29°47' W 095°05'0 0.0
2018-May-14 16:14N 29°47' W 095°05'0 0.0
2018-May-14 15:58N 29°47' W 095°05'0 0.0
2018-May-14 15:11N 29°47' W 095°05'0 0.0
2018-May-14 14:55N 29°47' W 095°05'0 0.0
2018-May-14 14:28N 29°47' W 095°05'0 0.0
2018-May-14 13:56N 29°47' W 095°05'0 0.0
2018-May-14 13:28N 29°47' W 095°05'0 0.0
2018-May-14 13:00N 29°47' W 095°05'0 0.0
2018-May-14 12:30N 29°47' W 095°05'0 0.0
2018-May-14 11:20N 29°47' W 095°05'0 0.0
2018-May-14 02:49N 29°47' W 095°05'0 0.0
2018-May-14 02:23N 29°47' W 095°05'0 0.0
2018-May-14 00:50N 29°47' W 095°05'0 0.0
2018-May-14 00:30N 29°47' W 095°05'0 0.0
2018-May-13 23:52N 29°47' W 095°05'0 0.0
2018-May-13 23:27N 29°47' W 095°05'0 0.0
2018-May-12 22:32N 29°47' W 095°05'0 3.2
2018-May-12 22:30N 29°47' W 095°05'0 0.0
2018-May-12 13:31N 29°47' W 095°05'0 0.0
2018-May-12 13:23N 29°47' W 095°05'0 0.0
2018-May-12 13:00N 29°47' W 095°05'0 0.0
2018-May-12 12:30N 29°47' W 095°05'0 0.0
2018-May-12 12:00N 29°47' W 095°05'0 0.0
2018-May-12 11:29N 29°47' W 095°05'0 0.0
2018-May-12 00:15N 29°47' W 095°05'0 0.7
2018-May-11 23:51N 29°47' W 095°05'0 0.0
2018-May-11 19:46N 29°47' W 095°05'0 0.1
2018-May-11 16:36N 29°47' W 095°05'0 3.2
2018-May-11 16:27N 29°47' W 095°05'3 5.9
2018-May-11 15:52N 29°44' W 095°02'0 0.4
2018-May-11 15:30N 29°44' W 095°02'3 6.7
2018-May-11 15:00N 29°46' W 095°05'1 0.1
2018-May-10 23:57N 29°47' W 095°05'0 0.0
2018-May-10 23:27N 29°47' W 095°05'0 0.0
2018-May-10 13:04N 29°47' W 095°05'0 0.7
2018-May-10 12:59N 29°47' W 095°05'0 0.0
2018-May-10 12:22N 29°47' W 095°05'0 0.0
2018-May-10 11:58N 29°47' W 095°05'0 0.0
2018-May-10 11:30N 29°47' W 095°05'0 0.1
2018-May-10 11:00N 29°47' W 095°05'  
Track history (hours):
 
Tides and Currents Weather Stations Pressure Air Temp Water Temp Dewpoint Dewpoint Depression Visibility Wind Speed Wind Dir Waves Ship Positions

Ursula

Owner: Enterprise Marine Services, LLC, San Antonio, TX. More information available from US FCC via Universal Licensing System and Coast Guard Vessel Documentation Center.

Last reported at 2018-May-20 10:59 UTC. Time now 2018-May-20 20:59 UTC.
Position N 29°44' W 095°03'.

Length 22 m; draft 3.2 m.

Type: Tug. MMSI: 367004050.

Date/timePositionNaut miles runAvg speedWind from/ knotsBaromVisibWave heightAir tempDewpointWater temp
2018-May-20 10:59N 29°44' W 095°03'3 0.1
2018-May-18 11:44N 29°47' W 095°05'1 1.0
2018-May-18 11:02N 29°47' W 095°05'0 0.0
2018-May-18 10:52N 29°47' W 095°05'0 0.0
2018-May-18 10:30N 29°47' W 095°05'0 0.0
2018-May-18 09:58N 29°47' W 095°05'0 0.0
2018-May-18 09:30N 29°47' W 095°05'0 0.0
2018-May-18 08:57N 29°47' W 095°05'0 0.0
2018-May-18 08:30N 29°47' W 095°05'0 0.0
2018-May-18 08:00N 29°47' W 095°05'0 0.0
2018-May-18 07:30N 29°47' W 095°05'0 0.0
2018-May-18 07:00N 29°47' W 095°05'0 0.0
2018-May-18 06:30N 29°47' W 095°05'0 0.0
2018-May-18 05:59N 29°47' W 095°05'0 0.0
2018-May-18 05:30N 29°47' W 095°05'0 0.0
2018-May-18 05:00N 29°47' W 095°05'0 0.0
2018-May-18 04:30N 29°47' W 095°05'0 0.0
2018-May-18 04:00N 29°47' W 095°05'0 0.0
2018-May-18 03:30N 29°47' W 095°05'0 0.0
2018-May-18 02:59N 29°47' W 095°05'0 0.0
2018-May-18 02:30N 29°47' W 095°05'0 0.0
2018-May-18 02:00N 29°47' W 095°05'0 0.0
2018-May-18 01:28N 29°47' W 095°05'0 0.0
2018-May-17 13:47N 29°47' W 095°05'0 0.1
2018-May-17 13:28N 29°47' W 095°05'0 0.3
2018-May-17 12:59N 29°47' W 095°05'0 0.9
2018-May-17 12:30N 29°47' W 095°04'1 2.6
2018-May-17 12:00N 29°46' W 095°05'0 0.4
2018-May-17 11:26N 29°46' W 095°04'2 2.4
2018-May-17 10:46N 29°47' W 095°05'0 0.9
2018-May-17 10:30N 29°47' W 095°05'0 0.0
2018-May-17 10:00N 29°47' W 095°05'0 0.0
2018-May-17 09:30N 29°47' W 095°05'0 0.0
2018-May-17 08:59N 29°47' W 095°05'0 0.0
2018-May-17 08:30N 29°47' W 095°05'0 0.0
2018-May-17 07:59N 29°47' W 095°05'0 0.0
2018-May-17 06:47N 29°47' W 095°05'0 0.0
2018-May-17 06:09N 29°47' W 095°05'0 0.0
2018-May-17 05:58N 29°47' W 095°05'0 0.0
2018-May-17 05:29N 29°47' W 095°05'0 0.0
2018-May-17 05:01N 29°47' W 095°05'0 0.0
2018-May-17 04:27N 29°47' W 095°05'0 0.1
2018-May-17 04:01N 29°47' W 095°05'0 0.1
2018-May-17 03:30N 29°47' W 095°05'0 0.0
2018-May-17 03:00N 29°47' W 095°05'0 0.0
2018-May-17 02:30N 29°47' W 095°05'0 0.0
2018-May-17 01:59N 29°47' W 095°05'0 0.0
2018-May-17 01:30N 29°47' W 095°05'4 1.9
2018-May-16 23:28N 29°44' W 095°03'4 0.4
2018-May-16 14:45N 29°47' W 095°05'0 0.1
2018-May-16 14:30N 29°47' W 095°05'0 0.1
2018-May-16 14:00N 29°47' W 095°05'0 0.0
2018-May-16 13:30N 29°47' W 095°05'0 0.0
2018-May-16 13:00N 29°47' W 095°05'0 0.2
2018-May-16 12:30N 29°47' W 095°05'0 0.0
2018-May-16 12:00N 29°47' W 095°05'0 0.0
2018-May-16 11:30N 29°47' W 095°05'0 0.0
2018-May-16 11:00N 29°47' W 095°05'0 0.0
2018-May-16 10:30N 29°47' W 095°05'0 0.0
2018-May-16 10:00N 29°47' W 095°05'0 0.0
2018-May-16 09:30N 29°47' W 095°05'0 0.0
2018-May-16 09:00N 29°47' W 095°05'0 0.0
2018-May-16 08:30N 29°47' W 095°05'0 0.0
2018-May-16 08:00N 29°47' W 095°05'0 0.0
2018-May-16 07:30N 29°47' W 095°05'0 0.0
2018-May-16 07:00N 29°47' W 095°05'0 0.0
2018-May-16 06:30N 29°47' W 095°05'0 0.0
2018-May-16 06:00N 29°47' W 095°05'0 0.0
2018-May-16 05:30N 29°47' W 095°05'0 0.0
2018-May-16 05:00N 29°47' W 095°05'0 0.0
2018-May-16 04:29N 29°47' W 095°05'0 0.0
2018-May-16 04:00N 29°47' W 095°05'0 0.0
2018-May-16 03:30N 29°47' W 095°05'0 0.0
2018-May-16 03:00N 29°47' W 095°05'0 0.0
2018-May-16 02:30N 29°47' W 095°05'0 0.0
2018-May-16 02:00N 29°47' W 095°05'0 0.0
2018-May-16 01:14N 29°47' W 095°05'0 0.0
2018-May-15 14:28N 29°47' W 095°05'0 0.0
2018-May-15 14:00N 29°47' W 095°05'0 0.0
2018-May-15 13:28N 29°47' W 095°05'0 0.2
2018-May-15 13:00N 29°47' W 095°05'0 0.0
2018-May-15 12:30N 29°47' W 095°05'0 0.0
2018-May-15 12:00N 29°47' W 095°05'0 0.0
2018-May-15 11:28N 29°47' W 095°05'0 0.0
2018-May-15 11:00N 29°47' W 095°05'0 0.3
2018-May-15 10:30N 29°47' W 095°05'0 0.0
2018-May-15 10:00N 29°47' W 095°05'0 1.0
2018-May-15 09:30N 29°47' W 095°04'0 0.4
2018-May-15 09:00N 29°47' W 095°05'0 0.8
2018-May-15 08:30N 29°47' W 095°05'0 0.0
2018-May-15 08:00N 29°47' W 095°05'0 0.1
2018-May-15 07:24N 29°47' W 095°05'0 0.4
2018-May-15 07:00N 29°47' W 095°05'0 0.0
2018-May-15 06:30N 29°47' W 095°05'0 0.0
2018-May-15 05:58N 29°47' W 095°05'0 0.0
2018-May-15 05:29N 29°47' W 095°05'0 0.0
2018-May-15 05:00N 29°47' W 095°05'0 0.0
2018-May-15 04:30N 29°47' W 095°05'0 0.0
2018-May-15 04:00N 29°47' W 095°05'0 0.0
2018-May-15 03:30N 29°47' W 095°05'0 0.0
2018-May-15 03:00N 29°47' W 095°05'0 0.0
2018-May-15 02:30N 29°47' W 095°05'0 0.0
2018-May-15 02:00N 29°47' W 095°05'0 0.0
2018-May-15 01:30N 29°47' W 095°05'0 0.1
2018-May-15 01:00N 29°47' W 095°05'0 0.0
2018-May-14 16:14N 29°47' W 095°05'0 0.0
2018-May-14 15:58N 29°47' W 095°05'0 0.0
2018-May-14 15:11N 29°47' W 095°05'0 0.0
2018-May-14 14:55N 29°47' W 095°05'0 0.0
2018-May-14 14:28N 29°47' W 095°05'0 0.0
2018-May-14 13:56N 29°47' W 095°05'0 0.0
2018-May-14 13:28N 29°47' W 095°05'0 0.0
2018-May-14 13:00N 29°47' W 095°05'0 0.0
2018-May-14 12:30N 29°47' W 095°05'0 0.0
2018-May-14 11:20N 29°47' W 095°05'0 0.0
2018-May-14 02:49N 29°47' W 095°05'0 0.0
2018-May-14 02:23N 29°47' W 095°05'0 0.0
2018-May-14 00:50N 29°47' W 095°05'0 0.0
2018-May-14 00:30N 29°47' W 095°05'0 0.0
2018-May-13 23:52N 29°47' W 095°05'0 0.0
2018-May-13 23:27N 29°47' W 095°05'0 0.0
2018-May-12 22:32N 29°47' W 095°05'0 3.2
2018-May-12 22:30N 29°47' W 095°05'0 0.0
2018-May-12 13:31N 29°47' W 095°05'0 0.0
2018-May-12 13:23N 29°47' W 095°05'0 0.0
2018-May-12 13:00N 29°47' W 095°05'0 0.0
2018-May-12 12:30N 29°47' W 095°05'0 0.0
2018-May-12 12:00N 29°47' W 095°05'0 0.0
2018-May-12 11:29N 29°47' W 095°05'0 0.0
2018-May-12 00:15N 29°47' W 095°05'0 0.7
2018-May-11 23:51N 29°47' W 095°05'0 0.0
2018-May-11 19:46N 29°47' W 095°05'0 0.1
2018-May-11 16:36N 29°47' W 095°05'0 3.2
2018-May-11 16:27N 29°47' W 095°05'3 5.9
2018-May-11 15:52N 29°44' W 095°02'0 0.4
2018-May-11 15:30N 29°44' W 095°02'3 6.7
2018-May-11 15:00N 29°46' W 095°05'1 0.1
2018-May-10 23:57N 29°47' W 095°05'0 0.0
2018-May-10 23:27N 29°47' W 095°05'0 0.0
2018-May-10 13:04N 29°47' W 095°05'0 0.7
2018-May-10 12:59N 29°47' W 095°05'0 0.0
2018-May-10 12:22N 29°47' W 095°05'0 0.0
2018-May-10 11:58N 29°47' W 095°05'0 0.0
2018-May-10 11:30N 29°47' W 095°05'0 0.1
2018-May-10 11:00N 29°47' W 095°05'  

Dump ship's entire track history